Tuesday, January 27, 2015
05:46 UTC
  |  Log In   |  Register Free
Airport Search:

Raton Municipal/Crews Field Airport
(KRTN)

Raton Municipal/Crews Field Airport Diagram
No Airport Diagram Available

FAA data valid effective January 08, 2015 - March 05, 2015 (unless otherwise noted).

 
 
 
 
 
 
 
 
 
 
 
 
 
 

Current Aviation Weather for Raton Municipal/Crews Field Airport (KRTN)

The most recent METAR observation for KRTN was updated at: 0518
METAR Summary (Translated METAR)
KRTN
270453Z AUTO 04007KT 10SM CLR 00/M03 A3034 RMK AO2 SLP266 T00001033
KTAD
270454Z AUTO 23017KT 10SM CLR 06/M03 A3029 RMK AO2 SLP231 T00611028
(32 nm NE from KRTN)
KAXX
270455Z AUTO 00000KT 10SM CLR M06/M07 A3046 RMK AO2 T10651075
(42.6 nm SW from KRTN)
TAF
No TAF information found within 50 nm of KRTN
  Airport Weather Conditions for KRTN

 Current Weather at RTN
32° F
Fair
Northeast winds at 8.1 mph
RTN NOAA Radar

Pressure: 30.34 in
Humidity: 79%
Wind: Northeast at 8.1 MPH (7 KT)
Dew Point: 26.1°F
Visibility: 10.00 mi


Airport Weather Forecast for KRTN

Translated METAR and TAF for KRTN
Translated METAR for KRTN (0546 UTC 27 January 2015)
found at http://aviationweather.gov/adds/metars/
 
METAR text: KRTN 270453Z AUTO 04007KT 10SM CLR 00/M03 A3034 RMK AO2 SLP266 T00001033
Conditions at: KRTN (RATON , NM, US) observed 0453 UTC 27 January 2015
Temperature: 0.0°C (32°F)
Dewpoint: -3.3°C (26°F) [RH = 78%]
Pressure (altimeter): 30.34 inches Hg (1027.5 mb)
[Sea-level pressure: 1026.6 mb]
Winds: from the NE (40 degrees) at 8 MPH (7 knots; 3.6 m/s)
Visibility: 10 or more miles (16+ km)
Ceiling: at least 12,000 feet AGL
Clouds: sky clear below 12,000 feet AGL
Weather: automated observation with no human augmentation;
there may or may not be significant weather present at this time
Translated TAF for KRTN

There is no translated TAF available for this airport

Find All Airport Services Find A Hotel Find A Rental Car Find A Golf Course Find A Restaurant $100 Hamburger



FBO's on the Field
FBO Company Facility Photos Services Transportation Aviation Fuel Prices: Prices include tax
Catering Weather Repair Courtesy Rental Type 100LL JetA JetA+ MOGAS 8087
 
Pegasus Aviation

This FBO has not yet been rated
FS:Phillips 66
Last Updated: Jan-09
Login to update fuel prices
SS:
Contact Pegasus AviationMore FBO Information
 
Add another FBO Facility Photos Catering Weather Repair Courtesy Rental Type 100LL JetA JetA+ MOGAS 8087
Services Transportation Aviation Fuel Prices: Prices include tax


model-print
model-print
model-print
model-print